sensor_id;sensor_type;location;lat;lon;timestamp;P1;durP1;ratioP1;P2;durP2;ratioP2
83690;SDS011;73671;43.220;0.064;2024-01-11T00:00:35;18.42;;;11.27;;
83690;SDS011;73671;43.220;0.064;2024-01-11T00:03:01;20.13;;;11.68;;
83690;SDS011;73671;43.220;0.064;2024-01-11T00:05:26;21.42;;;12.07;;
83690;SDS011;73671;43.220;0.064;2024-01-11T00:07:51;18.25;;;11.75;;
83690;SDS011;73671;43.220;0.064;2024-01-11T00:10:17;21.45;;;12.52;;
83690;SDS011;73671;43.220;0.064;2024-01-11T00:12:43;18.38;;;11.57;;
83690;SDS011;73671;43.220;0.064;2024-01-11T00:15:08;18.05;;;11.88;;
83690;SDS011;73671;43.220;0.064;2024-01-11T00:17:34;18.00;;;11.75;;
83690;SDS011;73671;43.220;0.064;2024-01-11T00:20:00;21.23;;;12.35;;
83690;SDS011;73671;43.220;0.064;2024-01-11T00:22:25;20.55;;;12.38;;
83690;SDS011;73671;43.220;0.064;2024-01-11T00:24:51;23.88;;;14.38;;
83690;SDS011;73671;43.220;0.064;2024-01-11T00:27:16;23.83;;;13.60;;
83690;SDS011;73671;43.220;0.064;2024-01-11T00:29:42;25.35;;;13.85;;
83690;SDS011;73671;43.220;0.064;2024-01-11T00:32:07;21.08;;;13.07;;
83690;SDS011;73671;43.220;0.064;2024-01-11T00:34:32;25.67;;;13.68;;
83690;SDS011;73671;43.220;0.064;2024-01-11T00:36:58;21.30;;;11.90;;
83690;SDS011;73671;43.220;0.064;2024-01-11T00:39:23;17.77;;;11.13;;
83690;SDS011;73671;43.220;0.064;2024-01-11T00:41:49;18.42;;;11.63;;
83690;SDS011;73671;43.220;0.064;2024-01-11T00:44:15;18.38;;;11.77;;
83690;SDS011;73671;43.220;0.064;2024-01-11T00:46:41;18.35;;;11.45;;
83690;SDS011;73671;43.220;0.064;2024-01-11T00:49:06;18.90;;;10.38;;
83690;SDS011;73671;43.220;0.064;2024-01-11T00:51:32;18.63;;;10.90;;
83690;SDS011;73671;43.220;0.064;2024-01-11T00:53:57;16.13;;;9.15;;
83690;SDS011;73671;43.220;0.064;2024-01-11T00:56:23;15.43;;;9.00;;
83690;SDS011;73671;43.220;0.064;2024-01-11T00:58:48;13.77;;;8.55;;
83690;SDS011;73671;43.220;0.064;2024-01-11T01:01:14;12.75;;;8.55;;
83690;SDS011;73671;43.220;0.064;2024-01-11T01:03:39;12.88;;;8.18;;
83690;SDS011;73671;43.220;0.064;2024-01-11T01:06:05;11.35;;;7.47;;
83690;SDS011;73671;43.220;0.064;2024-01-11T01:08:31;13.43;;;7.68;;
83690;SDS011;73671;43.220;0.064;2024-01-11T01:10:56;13.32;;;8.20;;
83690;SDS011;73671;43.220;0.064;2024-01-11T01:13:21;14.63;;;8.15;;
83690;SDS011;73671;43.220;0.064;2024-01-11T01:15:47;13.13;;;8.32;;
83690;SDS011;73671;43.220;0.064;2024-01-11T01:18:13;13.77;;;8.73;;
83690;SDS011;73671;43.220;0.064;2024-01-11T01:20:38;13.30;;;8.90;;
83690;SDS011;73671;43.220;0.064;2024-01-11T01:23:04;13.32;;;8.25;;
83690;SDS011;73671;43.220;0.064;2024-01-11T01:25:29;12.27;;;7.85;;
83690;SDS011;73671;43.220;0.064;2024-01-11T01:27:55;12.70;;;8.20;;
83690;SDS011;73671;43.220;0.064;2024-01-11T01:30:21;15.07;;;8.80;;
83690;SDS011;73671;43.220;0.064;2024-01-11T01:32:46;13.38;;;8.00;;
83690;SDS011;73671;43.220;0.064;2024-01-11T01:35:12;12.60;;;7.70;;
83690;SDS011;73671;43.220;0.064;2024-01-11T01:37:37;21.05;;;9.90;;
83690;SDS011;73671;43.220;0.064;2024-01-11T01:40:02;19.35;;;10.32;;
83690;SDS011;73671;43.220;0.064;2024-01-11T01:42:28;20.35;;;10.38;;
83690;SDS011;73671;43.220;0.064;2024-01-11T01:44:53;18.13;;;10.30;;
83690;SDS011;73671;43.220;0.064;2024-01-11T01:47:19;16.58;;;10.30;;
83690;SDS011;73671;43.220;0.064;2024-01-11T01:49:45;18.27;;;10.52;;
83690;SDS011;73671;43.220;0.064;2024-01-11T01:52:13;18.77;;;10.43;;
83690;SDS011;73671;43.220;0.064;2024-01-11T01:54:39;20.13;;;11.32;;
83690;SDS011;73671;43.220;0.064;2024-01-11T01:57:05;27.52;;;11.65;;
83690;SDS011;73671;43.220;0.064;2024-01-11T01:59:32;22.17;;;11.35;;
83690;SDS011;73671;43.220;0.064;2024-01-11T02:01:58;26.45;;;11.43;;
83690;SDS011;73671;43.220;0.064;2024-01-11T02:04:24;22.27;;;11.32;;
83690;SDS011;73671;43.220;0.064;2024-01-11T02:06:50;18.00;;;11.23;;
83690;SDS011;73671;43.220;0.064;2024-01-11T02:09:18;18.83;;;10.90;;
83690;SDS011;73671;43.220;0.064;2024-01-11T02:11:44;19.60;;;11.07;;
83690;SDS011;73671;43.220;0.064;2024-01-11T02:14:10;16.70;;;10.07;;
83690;SDS011;73671;43.220;0.064;2024-01-11T02:16:36;16.58;;;10.00;;
83690;SDS011;73671;43.220;0.064;2024-01-11T02:19:02;18.70;;;9.75;;
83690;SDS011;73671;43.220;0.064;2024-01-11T02:21:29;15.02;;;9.50;;
83690;SDS011;73671;43.220;0.064;2024-01-11T02:24:06;16.45;;;9.00;;
83690;SDS011;73671;43.220;0.064;2024-01-11T02:26:32;15.50;;;9.00;;
83690;SDS011;73671;43.220;0.064;2024-01-11T02:28:58;17.10;;;9.60;;
83690;SDS011;73671;43.220;0.064;2024-01-11T02:31:24;15.98;;;9.90;;
83690;SDS011;73671;43.220;0.064;2024-01-11T02:33:50;17.50;;;10.55;;
83690;SDS011;73671;43.220;0.064;2024-01-11T02:36:19;18.45;;;10.60;;
83690;SDS011;73671;43.220;0.064;2024-01-11T02:38:45;17.77;;;10.50;;
83690;SDS011;73671;43.220;0.064;2024-01-11T02:41:11;17.40;;;9.40;;
83690;SDS011;73671;43.220;0.064;2024-01-11T02:43:38;17.13;;;9.77;;
83690;SDS011;73671;43.220;0.064;2024-01-11T02:46:04;16.83;;;10.13;;
83690;SDS011;73671;43.220;0.064;2024-01-11T02:48:30;15.20;;;9.38;;
83690;SDS011;73671;43.220;0.064;2024-01-11T02:50:56;16.83;;;8.52;;
83690;SDS011;73671;43.220;0.064;2024-01-11T02:53:22;15.98;;;9.20;;
83690;SDS011;73671;43.220;0.064;2024-01-11T02:55:48;14.10;;;8.43;;
83690;SDS011;73671;43.220;0.064;2024-01-11T02:58:14;14.50;;;8.48;;
83690;SDS011;73671;43.220;0.064;2024-01-11T03:00:40;13.38;;;7.85;;
83690;SDS011;73671;43.220;0.064;2024-01-11T03:03:05;12.80;;;8.05;;
83690;SDS011;73671;43.220;0.064;2024-01-11T03:05:30;12.77;;;7.88;;
83690;SDS011;73671;43.220;0.064;2024-01-11T03:07:56;14.25;;;7.90;;
83690;SDS011;73671;43.220;0.064;2024-01-11T03:10:21;14.38;;;8.60;;
83690;SDS011;73671;43.220;0.064;2024-01-11T03:12:47;13.10;;;8.05;;
83690;SDS011;73671;43.220;0.064;2024-01-11T03:15:14;13.45;;;8.35;;
83690;SDS011;73671;43.220;0.064;2024-01-11T03:17:40;13.40;;;8.07;;
83690;SDS011;73671;43.220;0.064;2024-01-11T03:20:05;15.13;;;8.75;;
83690;SDS011;73671;43.220;0.064;2024-01-11T03:22:31;13.85;;;9.00;;
83690;SDS011;73671;43.220;0.064;2024-01-11T03:24:56;15.48;;;9.82;;
83690;SDS011;73671;43.220;0.064;2024-01-11T03:27:22;15.63;;;9.30;;
83690;SDS011;73671;43.220;0.064;2024-01-11T03:29:47;14.88;;;9.55;;
83690;SDS011;73671;43.220;0.064;2024-01-11T03:32:14;14.93;;;9.57;;
83690;SDS011;73671;43.220;0.064;2024-01-11T03:34:40;11.40;;;7.90;;
83690;SDS011;73671;43.220;0.064;2024-01-11T03:37:05;10.95;;;7.45;;
83690;SDS011;73671;43.220;0.064;2024-01-11T03:39:30;12.65;;;8.27;;
83690;SDS011;73671;43.220;0.064;2024-01-11T03:41:56;13.05;;;8.48;;
83690;SDS011;73671;43.220;0.064;2024-01-11T03:44:22;12.88;;;8.45;;
83690;SDS011;73671;43.220;0.064;2024-01-11T03:46:47;12.18;;;8.43;;
83690;SDS011;73671;43.220;0.064;2024-01-11T03:49:12;12.75;;;8.90;;
83690;SDS011;73671;43.220;0.064;2024-01-11T03:51:38;15.50;;;9.45;;
83690;SDS011;73671;43.220;0.064;2024-01-11T03:54:03;14.65;;;9.48;;
83690;SDS011;73671;43.220;0.064;2024-01-11T03:56:29;13.23;;;9.25;;
83690;SDS011;73671;43.220;0.064;2024-01-11T03:58:54;15.18;;;10.32;;
83690;SDS011;73671;43.220;0.064;2024-01-11T04:01:20;16.00;;;10.07;;
83690;SDS011;73671;43.220;0.064;2024-01-11T04:03:45;16.20;;;10.07;;
83690;SDS011;73671;43.220;0.064;2024-01-11T04:06:18;16.10;;;9.82;;
83690;SDS011;73671;43.220;0.064;2024-01-11T04:08:48;18.02;;;11.07;;
83690;SDS011;73671;43.220;0.064;2024-01-11T04:11:13;21.73;;;11.10;;
83690;SDS011;73671;43.220;0.064;2024-01-11T04:13:39;16.92;;;11.13;;
83690;SDS011;73671;43.220;0.064;2024-01-11T04:16:07;18.38;;;10.55;;
83690;SDS011;73671;43.220;0.064;2024-01-11T04:18:33;17.92;;;10.48;;
83690;SDS011;73671;43.220;0.064;2024-01-11T04:20:59;17.73;;;11.48;;
83690;SDS011;73671;43.220;0.064;2024-01-11T04:23:24;16.52;;;10.68;;
83690;SDS011;73671;43.220;0.064;2024-01-11T04:25:50;16.23;;;10.70;;
83690;SDS011;73671;43.220;0.064;2024-01-11T04:28:16;15.65;;;10.38;;
83690;SDS011;73671;43.220;0.064;2024-01-11T04:30:42;16.42;;;10.93;;
83690;SDS011;73671;43.220;0.064;2024-01-11T04:33:07;16.88;;;10.43;;
83690;SDS011;73671;43.220;0.064;2024-01-11T04:35:33;17.75;;;10.82;;
83690;SDS011;73671;43.220;0.064;2024-01-11T04:37:58;18.42;;;11.07;;
83690;SDS011;73671;43.220;0.064;2024-01-11T04:40:23;16.65;;;10.65;;
83690;SDS011;73671;43.220;0.064;2024-01-11T04:42:49;20.02;;;11.68;;
83690;SDS011;73671;43.220;0.064;2024-01-11T04:45:14;17.35;;;11.43;;
83690;SDS011;73671;43.220;0.064;2024-01-11T04:47:40;17.83;;;10.85;;
83690;SDS011;73671;43.220;0.064;2024-01-11T04:50:06;16.80;;;10.70;;
83690;SDS011;73671;43.220;0.064;2024-01-11T04:52:32;19.17;;;10.95;;
83690;SDS011;73671;43.220;0.064;2024-01-11T04:54:57;17.13;;;11.57;;
83690;SDS011;73671;43.220;0.064;2024-01-11T04:57:22;18.10;;;10.60;;
83690;SDS011;73671;43.220;0.064;2024-01-11T04:59:48;19.83;;;11.50;;
83690;SDS011;73671;43.220;0.064;2024-01-11T05:02:13;18.20;;;11.32;;
83690;SDS011;73671;43.220;0.064;2024-01-11T05:04:38;19.02;;;11.60;;
83690;SDS011;73671;43.220;0.064;2024-01-11T05:07:04;18.60;;;11.07;;
83690;SDS011;73671;43.220;0.064;2024-01-11T05:09:29;18.95;;;11.10;;
83690;SDS011;73671;43.220;0.064;2024-01-11T05:11:54;19.02;;;10.55;;
83690;SDS011;73671;43.220;0.064;2024-01-11T05:14:20;18.20;;;11.13;;
83690;SDS011;73671;43.220;0.064;2024-01-11T05:16:45;17.90;;;11.05;;
83690;SDS011;73671;43.220;0.064;2024-01-11T05:19:11;18.58;;;11.88;;
83690;SDS011;73671;43.220;0.064;2024-01-11T05:21:36;18.25;;;11.52;;
83690;SDS011;73671;43.220;0.064;2024-01-11T05:24:01;19.00;;;11.10;;
83690;SDS011;73671;43.220;0.064;2024-01-11T05:26:27;17.63;;;11.10;;
83690;SDS011;73671;43.220;0.064;2024-01-11T05:28:52;17.08;;;11.23;;
83690;SDS011;73671;43.220;0.064;2024-01-11T05:31:18;31.35;;;15.90;;
83690;SDS011;73671;43.220;0.064;2024-01-11T05:33:44;58.50;;;27.10;;
83690;SDS011;73671;43.220;0.064;2024-01-11T05:36:10;29.10;;;15.80;;
83690;SDS011;73671;43.220;0.064;2024-01-11T05:38:38;21.48;;;13.18;;
83690;SDS011;73671;43.220;0.064;2024-01-11T05:41:05;18.45;;;11.40;;
83690;SDS011;73671;43.220;0.064;2024-01-11T05:43:30;18.95;;;12.05;;
83690;SDS011;73671;43.220;0.064;2024-01-11T05:45:55;21.00;;;12.38;;
83690;SDS011;73671;43.220;0.064;2024-01-11T05:48:21;20.08;;;12.23;;
83690;SDS011;73671;43.220;0.064;2024-01-11T05:50:46;38.97;;;18.58;;
83690;SDS011;73671;43.220;0.064;2024-01-11T05:53:12;27.40;;;14.55;;
83690;SDS011;73671;43.220;0.064;2024-01-11T05:55:38;23.52;;;13.65;;
83690;SDS011;73671;43.220;0.064;2024-01-11T05:58:03;22.50;;;12.25;;
83690;SDS011;73671;43.220;0.064;2024-01-11T06:00:29;22.45;;;12.70;;
83690;SDS011;73671;43.220;0.064;2024-01-11T06:02:54;18.30;;;11.73;;
83690;SDS011;73671;43.220;0.064;2024-01-11T06:05:20;16.90;;;10.80;;
83690;SDS011;73671;43.220;0.064;2024-01-11T06:07:45;21.25;;;11.43;;
83690;SDS011;73671;43.220;0.064;2024-01-11T06:10:10;18.50;;;11.93;;
83690;SDS011;73671;43.220;0.064;2024-01-11T06:12:36;18.38;;;11.30;;
83690;SDS011;73671;43.220;0.064;2024-01-11T06:15:01;19.20;;;11.98;;
83690;SDS011;73671;43.220;0.064;2024-01-11T06:17:27;18.52;;;11.45;;
83690;SDS011;73671;43.220;0.064;2024-01-11T06:19:53;18.77;;;10.40;;
83690;SDS011;73671;43.220;0.064;2024-01-11T06:22:19;18.95;;;11.50;;
83690;SDS011;73671;43.220;0.064;2024-01-11T06:24:45;18.55;;;12.70;;
83690;SDS011;73671;43.220;0.064;2024-01-11T06:27:10;21.30;;;13.05;;
83690;SDS011;73671;43.220;0.064;2024-01-11T06:29:35;20.77;;;12.50;;
83690;SDS011;73671;43.220;0.064;2024-01-11T06:32:01;23.35;;;13.18;;
83690;SDS011;73671;43.220;0.064;2024-01-11T06:34:27;20.80;;;12.43;;
83690;SDS011;73671;43.220;0.064;2024-01-11T06:36:53;18.35;;;11.85;;
83690;SDS011;73671;43.220;0.064;2024-01-11T06:39:19;19.15;;;12.32;;
83690;SDS011;73671;43.220;0.064;2024-01-11T06:41:44;19.65;;;13.20;;
83690;SDS011;73671;43.220;0.064;2024-01-11T06:44:10;22.88;;;13.55;;
83690;SDS011;73671;43.220;0.064;2024-01-11T06:46:35;21.27;;;13.45;;
83690;SDS011;73671;43.220;0.064;2024-01-11T06:49:07;27.52;;;15.98;;
83690;SDS011;73671;43.220;0.064;2024-01-11T06:51:33;24.75;;;14.80;;
83690;SDS011;73671;43.220;0.064;2024-01-11T06:53:59;23.35;;;14.63;;
83690;SDS011;73671;43.220;0.064;2024-01-11T06:56:26;21.77;;;13.50;;
83690;SDS011;73671;43.220;0.064;2024-01-11T06:58:52;21.90;;;13.30;;
83690;SDS011;73671;43.220;0.064;2024-01-11T07:01:17;23.02;;;13.70;;
83690;SDS011;73671;43.220;0.064;2024-01-11T07:03:43;20.65;;;12.93;;
83690;SDS011;73671;43.220;0.064;2024-01-11T07:06:09;22.83;;;13.38;;
83690;SDS011;73671;43.220;0.064;2024-01-11T07:08:34;26.70;;;15.40;;
83690;SDS011;73671;43.220;0.064;2024-01-11T07:11:00;28.52;;;15.82;;
83690;SDS011;73671;43.220;0.064;2024-01-11T07:13:31;33.10;;;16.70;;
83690;SDS011;73671;43.220;0.064;2024-01-11T07:15:57;27.17;;;15.80;;
83690;SDS011;73671;43.220;0.064;2024-01-11T07:18:23;26.67;;;14.43;;
83690;SDS011;73671;43.220;0.064;2024-01-11T07:20:52;24.65;;;14.25;;
83690;SDS011;73671;43.220;0.064;2024-01-11T07:23:18;25.67;;;14.35;;
83690;SDS011;73671;43.220;0.064;2024-01-11T07:25:43;25.13;;;13.63;;
83690;SDS011;73671;43.220;0.064;2024-01-11T07:28:09;25.23;;;13.82;;
83690;SDS011;73671;43.220;0.064;2024-01-11T07:30:34;25.88;;;14.43;;
83690;SDS011;73671;43.220;0.064;2024-01-11T07:33:00;23.65;;;13.45;;
83690;SDS011;73671;43.220;0.064;2024-01-11T07:35:25;24.00;;;14.02;;
83690;SDS011;73671;43.220;0.064;2024-01-11T07:37:51;25.95;;;14.73;;
83690;SDS011;73671;43.220;0.064;2024-01-11T07:40:16;30.98;;;16.10;;
83690;SDS011;73671;43.220;0.064;2024-01-11T07:42:42;27.45;;;15.10;;
83690;SDS011;73671;43.220;0.064;2024-01-11T07:45:08;25.75;;;15.32;;
83690;SDS011;73671;43.220;0.064;2024-01-11T07:47:39;27.75;;;15.10;;
83690;SDS011;73671;43.220;0.064;2024-01-11T07:50:05;23.92;;;14.27;;
83690;SDS011;73671;43.220;0.064;2024-01-11T07:52:37;24.55;;;13.82;;
83690;SDS011;73671;43.220;0.064;2024-01-11T07:55:03;23.95;;;13.93;;
83690;SDS011;73671;43.220;0.064;2024-01-11T07:57:36;25.27;;;13.80;;
83690;SDS011;73671;43.220;0.064;2024-01-11T08:00:02;21.75;;;13.40;;
83690;SDS011;73671;43.220;0.064;2024-01-11T08:02:28;20.38;;;12.82;;
83690;SDS011;73671;43.220;0.064;2024-01-11T08:04:54;24.88;;;15.77;;
83690;SDS011;73671;43.220;0.064;2024-01-11T08:07:20;27.55;;;16.23;;
83690;SDS011;73671;43.220;0.064;2024-01-11T08:09:46;26.77;;;15.48;;
83690;SDS011;73671;43.220;0.064;2024-01-11T08:12:12;25.70;;;16.17;;
83690;SDS011;73671;43.220;0.064;2024-01-11T08:14:38;25.45;;;14.40;;
83690;SDS011;73671;43.220;0.064;2024-01-11T08:17:03;23.83;;;15.25;;
83690;SDS011;73671;43.220;0.064;2024-01-11T08:19:30;30.98;;;18.95;;
83690;SDS011;73671;43.220;0.064;2024-01-11T08:21:56;32.22;;;20.58;;
83690;SDS011;73671;43.220;0.064;2024-01-11T08:24:21;29.58;;;16.45;;
83690;SDS011;73671;43.220;0.064;2024-01-11T08:26:47;24.65;;;14.45;;
83690;SDS011;73671;43.220;0.064;2024-01-11T08:29:15;26.48;;;14.73;;
83690;SDS011;73671;43.220;0.064;2024-01-11T08:31:41;27.40;;;14.65;;
83690;SDS011;73671;43.220;0.064;2024-01-11T08:34:08;28.55;;;15.90;;
83690;SDS011;73671;43.220;0.064;2024-01-11T08:36:35;29.70;;;16.27;;
83690;SDS011;73671;43.220;0.064;2024-01-11T08:39:07;26.45;;;15.02;;
83690;SDS011;73671;43.220;0.064;2024-01-11T08:41:36;27.95;;;14.65;;
83690;SDS011;73671;43.220;0.064;2024-01-11T08:44:03;22.48;;;13.88;;
83690;SDS011;73671;43.220;0.064;2024-01-11T08:46:30;23.27;;;14.30;;
83690;SDS011;73671;43.220;0.064;2024-01-11T08:48:58;24.10;;;13.82;;
83690;SDS011;73671;43.220;0.064;2024-01-11T08:51:24;29.67;;;16.30;;
83690;SDS011;73671;43.220;0.064;2024-01-11T08:53:49;25.63;;;14.02;;
83690;SDS011;73671;43.220;0.064;2024-01-11T08:56:14;23.65;;;13.65;;
83690;SDS011;73671;43.220;0.064;2024-01-11T08:58:41;21.17;;;13.05;;
83690;SDS011;73671;43.220;0.064;2024-01-11T09:01:07;23.73;;;12.60;;
83690;SDS011;73671;43.220;0.064;2024-01-11T09:03:35;25.60;;;13.18;;
83690;SDS011;73671;43.220;0.064;2024-01-11T09:06:02;21.70;;;13.02;;
83690;SDS011;73671;43.220;0.064;2024-01-11T09:08:28;20.65;;;12.30;;
83690;SDS011;73671;43.220;0.064;2024-01-11T09:10:54;18.85;;;11.77;;
83690;SDS011;73671;43.220;0.064;2024-01-11T09:13:20;18.48;;;11.75;;
83690;SDS011;73671;43.220;0.064;2024-01-11T09:15:46;17.05;;;10.88;;
83690;SDS011;73671;43.220;0.064;2024-01-11T09:18:11;17.70;;;11.02;;
83690;SDS011;73671;43.220;0.064;2024-01-11T09:20:37;15.73;;;10.32;;
83690;SDS011;73671;43.220;0.064;2024-01-11T09:23:02;15.65;;;9.75;;
83690;SDS011;73671;43.220;0.064;2024-01-11T09:25:31;15.90;;;10.57;;
83690;SDS011;73671;43.220;0.064;2024-01-11T09:27:56;15.88;;;10.20;;
83690;SDS011;73671;43.220;0.064;2024-01-11T09:30:22;18.98;;;11.00;;
83690;SDS011;73671;43.220;0.064;2024-01-11T09:32:47;17.42;;;10.60;;
83690;SDS011;73671;43.220;0.064;2024-01-11T09:35:13;18.90;;;12.23;;
83690;SDS011;73671;43.220;0.064;2024-01-11T09:37:39;16.45;;;10.52;;
83690;SDS011;73671;43.220;0.064;2024-01-11T09:40:05;21.80;;;12.82;;
83690;SDS011;73671;43.220;0.064;2024-01-11T09:42:35;22.95;;;13.70;;
83690;SDS011;73671;43.220;0.064;2024-01-11T09:45:07;23.15;;;13.70;;
83690;SDS011;73671;43.220;0.064;2024-01-11T09:47:35;21.85;;;13.50;;
83690;SDS011;73671;43.220;0.064;2024-01-11T09:50:04;22.48;;;14.15;;
83690;SDS011;73671;43.220;0.064;2024-01-11T09:52:31;24.45;;;14.60;;
83690;SDS011;73671;43.220;0.064;2024-01-11T09:54:57;23.70;;;14.30;;
83690;SDS011;73671;43.220;0.064;2024-01-11T09:57:31;22.90;;;14.85;;
83690;SDS011;73671;43.220;0.064;2024-01-11T09:59:58;24.67;;;14.70;;
83690;SDS011;73671;43.220;0.064;2024-01-11T10:02:23;26.13;;;14.70;;
83690;SDS011;73671;43.220;0.064;2024-01-11T10:04:51;25.98;;;14.90;;
83690;SDS011;73671;43.220;0.064;2024-01-11T10:07:18;22.60;;;14.75;;
83690;SDS011;73671;43.220;0.064;2024-01-11T10:09:47;21.70;;;13.82;;
83690;SDS011;73671;43.220;0.064;2024-01-11T10:12:12;20.63;;;13.07;;
83690;SDS011;73671;43.220;0.064;2024-01-11T10:14:38;22.88;;;12.57;;
83690;SDS011;73671;43.220;0.064;2024-01-11T10:17:03;15.32;;;11.38;;
83690;SDS011;73671;43.220;0.064;2024-01-11T10:19:30;16.80;;;11.98;;
83690;SDS011;73671;43.220;0.064;2024-01-11T10:21:55;17.85;;;12.57;;
83690;SDS011;73671;43.220;0.064;2024-01-11T10:24:23;19.38;;;12.38;;
83690;SDS011;73671;43.220;0.064;2024-01-11T10:26:51;18.15;;;11.70;;
83690;SDS011;73671;43.220;0.064;2024-01-11T10:29:20;18.80;;;11.27;;
83690;SDS011;73671;43.220;0.064;2024-01-11T10:31:45;18.67;;;12.35;;
83690;SDS011;73671;43.220;0.064;2024-01-11T10:34:11;16.98;;;12.10;;
83690;SDS011;73671;43.220;0.064;2024-01-11T10:36:36;18.48;;;12.07;;
83690;SDS011;73671;43.220;0.064;2024-01-11T10:39:02;18.95;;;12.25;;
83690;SDS011;73671;43.220;0.064;2024-01-11T10:41:32;19.33;;;12.48;;
83690;SDS011;73671;43.220;0.064;2024-01-11T10:44:02;20.50;;;13.18;;
83690;SDS011;73671;43.220;0.064;2024-01-11T10:46:29;20.85;;;13.60;;
83690;SDS011;73671;43.220;0.064;2024-01-11T10:48:59;20.35;;;13.23;;
83690;SDS011;73671;43.220;0.064;2024-01-11T10:51:29;18.25;;;12.85;;
83690;SDS011;73671;43.220;0.064;2024-01-11T10:53:57;19.70;;;12.98;;
83690;SDS011;73671;43.220;0.064;2024-01-11T10:56:25;19.55;;;13.30;;
83690;SDS011;73671;43.220;0.064;2024-01-11T10:58:53;22.08;;;13.20;;
83690;SDS011;73671;43.220;0.064;2024-01-11T11:01:19;19.25;;;12.95;;
83690;SDS011;73671;43.220;0.064;2024-01-11T11:03:45;20.73;;;13.68;;
83690;SDS011;73671;43.220;0.064;2024-01-11T11:06:13;22.73;;;13.05;;
83690;SDS011;73671;43.220;0.064;2024-01-11T11:08:39;21.02;;;13.18;;
83690;SDS011;73671;43.220;0.064;2024-01-11T11:11:05;19.83;;;12.73;;
83690;SDS011;73671;43.220;0.064;2024-01-11T11:13:31;18.92;;;12.10;;
83690;SDS011;73671;43.220;0.064;2024-01-11T11:15:57;21.38;;;12.57;;
83690;SDS011;73671;43.220;0.064;2024-01-11T11:18:23;17.27;;;11.18;;
83690;SDS011;73671;43.220;0.064;2024-01-11T11:20:49;18.13;;;11.60;;
83690;SDS011;73671;43.220;0.064;2024-01-11T11:23:16;16.88;;;10.60;;
83690;SDS011;73671;43.220;0.064;2024-01-11T11:25:43;14.07;;;10.23;;
83690;SDS011;73671;43.220;0.064;2024-01-11T11:28:14;15.35;;;10.52;;
83690;SDS011;73671;43.220;0.064;2024-01-11T11:30:41;14.45;;;10.07;;
83690;SDS011;73671;43.220;0.064;2024-01-11T11:33:11;15.55;;;10.50;;
83690;SDS011;73671;43.220;0.064;2024-01-11T11:35:41;14.20;;;9.20;;
83690;SDS011;73671;43.220;0.064;2024-01-11T11:38:07;15.68;;;10.77;;
83690;SDS011;73671;43.220;0.064;2024-01-11T11:40:33;15.82;;;10.18;;
83690;SDS011;73671;43.220;0.064;2024-01-11T11:43:04;15.82;;;9.93;;
83690;SDS011;73671;43.220;0.064;2024-01-11T11:45:30;17.20;;;11.23;;
83690;SDS011;73671;43.220;0.064;2024-01-11T11:47:56;15.18;;;10.98;;
83690;SDS011;73671;43.220;0.064;2024-01-11T11:50:22;19.70;;;11.32;;
83690;SDS011;73671;43.220;0.064;2024-01-11T11:52:53;18.15;;;11.68;;
83690;SDS011;73671;43.220;0.064;2024-01-11T11:55:22;18.17;;;12.70;;
83690;SDS011;73671;43.220;0.064;2024-01-11T11:57:50;21.08;;;12.77;;
83690;SDS011;73671;43.220;0.064;2024-01-11T12:00:17;20.83;;;12.40;;
83690;SDS011;73671;43.220;0.064;2024-01-11T12:02:42;20.25;;;12.15;;
83690;SDS011;73671;43.220;0.064;2024-01-11T12:05:08;17.60;;;11.80;;
83690;SDS011;73671;43.220;0.064;2024-01-11T12:07:33;17.00;;;12.13;;
83690;SDS011;73671;43.220;0.064;2024-01-11T12:09:59;19.80;;;12.38;;
83690;SDS011;73671;43.220;0.064;2024-01-11T12:12:25;21.27;;;12.82;;
83690;SDS011;73671;43.220;0.064;2024-01-11T12:14:51;20.75;;;12.65;;
83690;SDS011;73671;43.220;0.064;2024-01-11T12:17:18;21.15;;;13.63;;
83690;SDS011;73671;43.220;0.064;2024-01-11T12:19:44;20.33;;;13.40;;
83690;SDS011;73671;43.220;0.064;2024-01-11T12:22:09;21.83;;;12.75;;
83690;SDS011;73671;43.220;0.064;2024-01-11T12:24:34;19.75;;;12.85;;
83690;SDS011;73671;43.220;0.064;2024-01-11T12:27:00;19.80;;;12.43;;
83690;SDS011;73671;43.220;0.064;2024-01-11T12:29:29;21.90;;;14.07;;
83690;SDS011;73671;43.220;0.064;2024-01-11T12:31:56;23.02;;;12.73;;
83690;SDS011;73671;43.220;0.064;2024-01-11T12:34:23;22.23;;;13.35;;
83690;SDS011;73671;43.220;0.064;2024-01-11T12:36:49;27.45;;;14.25;;
83690;SDS011;73671;43.220;0.064;2024-01-11T12:39:16;21.73;;;13.60;;
83690;SDS011;73671;43.220;0.064;2024-01-11T12:41:41;23.20;;;13.38;;
83690;SDS011;73671;43.220;0.064;2024-01-11T12:44:08;21.20;;;13.52;;
83690;SDS011;73671;43.220;0.064;2024-01-11T12:46:33;18.52;;;12.20;;
83690;SDS011;73671;43.220;0.064;2024-01-11T12:48:59;19.48;;;12.93;;
83690;SDS011;73671;43.220;0.064;2024-01-11T12:51:25;21.77;;;13.95;;
83690;SDS011;73671;43.220;0.064;2024-01-11T12:53:52;21.02;;;12.55;;
83690;SDS011;73671;43.220;0.064;2024-01-11T12:56:18;21.50;;;12.43;;
83690;SDS011;73671;43.220;0.064;2024-01-11T12:58:46;22.17;;;13.45;;
83690;SDS011;73671;43.220;0.064;2024-01-11T13:01:12;19.00;;;11.77;;
83690;SDS011;73671;43.220;0.064;2024-01-11T13:03:39;18.95;;;12.48;;
83690;SDS011;73671;43.220;0.064;2024-01-11T13:06:09;21.15;;;12.13;;
83690;SDS011;73671;43.220;0.064;2024-01-11T13:08:36;20.42;;;11.60;;
83690;SDS011;73671;43.220;0.064;2024-01-11T13:11:04;23.73;;;13.73;;
83690;SDS011;73671;43.220;0.064;2024-01-11T13:13:32;20.00;;;12.52;;
83690;SDS011;73671;43.220;0.064;2024-01-11T13:16:01;21.58;;;13.50;;
83690;SDS011;73671;43.220;0.064;2024-01-11T13:18:31;19.70;;;12.45;;
83690;SDS011;73671;43.220;0.064;2024-01-11T13:20:57;22.40;;;12.50;;
83690;SDS011;73671;43.220;0.064;2024-01-11T13:23:22;20.60;;;13.40;;
83690;SDS011;73671;43.220;0.064;2024-01-11T13:25:49;23.27;;;12.70;;
83690;SDS011;73671;43.220;0.064;2024-01-11T13:28:15;21.27;;;12.18;;
83690;SDS011;73671;43.220;0.064;2024-01-11T13:30:41;22.23;;;12.40;;
83690;SDS011;73671;43.220;0.064;2024-01-11T13:33:07;20.00;;;12.60;;
83690;SDS011;73671;43.220;0.064;2024-01-11T13:35:37;20.85;;;13.82;;
83690;SDS011;73671;43.220;0.064;2024-01-11T13:38:04;19.00;;;11.93;;
83690;SDS011;73671;43.220;0.064;2024-01-11T13:40:30;19.60;;;11.05;;
83690;SDS011;73671;43.220;0.064;2024-01-11T13:42:56;20.05;;;12.43;;
83690;SDS011;73671;43.220;0.064;2024-01-11T13:45:22;19.38;;;12.27;;
83690;SDS011;73671;43.220;0.064;2024-01-11T13:47:48;21.10;;;11.88;;
83690;SDS011;73671;43.220;0.064;2024-01-11T13:50:13;19.15;;;11.75;;
83690;SDS011;73671;43.220;0.064;2024-01-11T13:52:39;21.40;;;12.32;;
83690;SDS011;73671;43.220;0.064;2024-01-11T13:55:06;19.08;;;11.55;;
83690;SDS011;73671;43.220;0.064;2024-01-11T13:57:32;20.15;;;12.60;;
83690;SDS011;73671;43.220;0.064;2024-01-11T13:59:59;19.23;;;11.48;;
83690;SDS011;73671;43.220;0.064;2024-01-11T14:02:24;21.77;;;12.07;;
83690;SDS011;73671;43.220;0.064;2024-01-11T14:04:50;18.85;;;11.43;;
83690;SDS011;73671;43.220;0.064;2024-01-11T14:07:15;18.60;;;11.85;;
83690;SDS011;73671;43.220;0.064;2024-01-11T14:09:41;19.52;;;12.02;;
83690;SDS011;73671;43.220;0.064;2024-01-11T14:12:06;18.70;;;11.20;;
83690;SDS011;73671;43.220;0.064;2024-01-11T14:14:32;20.77;;;11.52;;
83690;SDS011;73671;43.220;0.064;2024-01-11T14:16:57;19.13;;;11.18;;